Time;durP1;ratioP1;P1;durP2;ratioP2;P2;SDS_P1;SDS_P2;PMS_P1;PMS_P2;Temp;Humidity;BMP_temperature;BMP_pressure;BME280_temperature;BME280_humidity;BME280_pressure;Samples;Min_cycle;Max_cycle;Signal;HPM_P1;HPM_P2
2021/10/04 04:30:47;;;;;;;1.53;0.80;;;12.40;99.90;;;;;;5986101;23;20355;-76
2021/10/04 04:33:13;;;;;;;0.70;0.70;;;12.40;99.90;;;;;;4947415;29;20972;-81
2021/10/04 04:35:38;;;;;;;1.00;0.80;;;12.40;99.90;;;;;;4955131;29;20188;-78
2021/10/04 04:38:04;;;;;;;1.27;1.00;;;12.40;99.90;;;;;;4957828;29;20747;-76
2021/10/04 04:40:30;;;;;;;0.77;0.67;;;12.40;99.90;;;;;;4958687;28;20181;-80
2021/10/04 04:42:55;;;;;;;1.23;0.83;;;12.40;99.90;;;;;;4958773;29;20236;-79
2021/10/04 04:45:22;;;;;;;1.20;1.10;;;12.40;99.90;;;;;;4958013;29;20173;-80
2021/10/04 04:47:48;;;;;;;1.33;0.80;;;12.40;99.90;;;;;;4958901;28;20176;-79
2021/10/04 04:50:15;;;;;;;1.00;0.77;;;12.40;99.90;;;;;;4958779;28;20420;-78
2021/10/04 04:52:41;;;;;;;0.90;0.80;;;12.40;99.90;;;;;;4955970;28;20460;-78
2021/10/04 04:55:08;;;;;;;1.00;0.90;;;12.40;99.90;;;;;;4956909;28;20507;-81
2021/10/04 04:57:33;;;;;;;2.00;1.00;;;12.40;99.90;;;;;;4956602;28;20460;-81
2021/10/04 04:59:59;;;;;;;1.20;0.93;;;12.40;99.90;;;;;;4956654;28;20427;-81
2021/10/04 05:02:28;;;;;;;2.67;1.30;;;12.40;99.90;;;;;;4956199;28;20194;-80
2021/10/04 05:04:53;;;;;;;1.20;1.10;;;12.40;99.90;;;;;;4956477;29;20180;-81
2021/10/04 05:07:19;;;;;;;1.97;1.10;;;12.40;99.90;;;;;;4957380;29;20815;-80
2021/10/04 05:09:48;;;;;;;2.40;0.80;;;12.40;99.90;;;;;;4956080;29;20236;-81
2021/10/04 05:12:13;;;;;;;0.97;0.80;;;12.40;99.90;;;;;;4957387;28;20256;-81
2021/10/04 05:14:39;;;;;;;2.27;1.23;;;12.40;99.90;;;;;;4957026;29;20412;-81
2021/10/04 05:17:04;;;;;;;1.93;0.80;;;12.40;99.90;;;;;;4956955;29;20240;-81
2021/10/04 05:19:30;;;;;;;1.30;1.20;;;12.40;99.90;;;;;;4957005;29;20192;-81
2021/10/04 05:21:55;;;;;;;2.43;1.10;;;12.40;99.90;;;;;;4955934;28;20196;-78
2021/10/04 05:24:21;;;;;;;2.00;1.57;;;12.30;99.90;;;;;;4953881;29;20866;-77
2021/10/04 05:26:46;;;;;;;1.10;0.93;;;12.30;99.90;;;;;;4954077;29;20188;-75
2021/10/04 05:29:12;;;;;;;3.10;1.40;;;12.40;99.90;;;;;;4953863;29;20173;-75
2021/10/04 05:31:38;;;;;;;4.43;0.90;;;12.40;99.90;;;;;;4952237;28;20227;-74
2021/10/04 05:34:04;;;;;;;1.10;1.00;;;12.40;99.90;;;;;;4954098;29;20515;-74
2021/10/04 05:36:31;;;;;;;3.60;1.43;;;12.40;99.90;;;;;;4959221;28;20180;-75
2021/10/04 05:38:56;;;;;;;1.23;1.13;;;12.40;99.90;;;;;;4954376;28;20526;-74
2021/10/04 05:41:22;;;;;;;2.20;1.33;;;12.40;99.90;;;;;;4953571;28;20475;-74
2021/10/04 05:43:47;;;;;;;2.30;1.53;;;12.50;99.90;;;;;;4953454;29;20204;-77
2021/10/04 05:46:13;;;;;;;1.40;1.10;;;12.40;99.90;;;;;;4953857;29;20220;-77
2021/10/04 05:48:39;;;;;;;1.93;1.20;;;12.40;99.90;;;;;;4947784;29;20227;-77
2021/10/04 05:51:05;;;;;;;1.60;1.37;;;12.40;99.90;;;;;;4951529;28;20211;-76
2021/10/04 05:53:33;;;;;;;1.67;1.57;;;12.40;99.90;;;;;;4953106;29;20180;-75
2021/10/04 05:55:59;;;;;;;1.47;1.37;;;12.40;99.90;;;;;;4953614;28;20413;-76
2021/10/04 05:58:24;;;;;;;2.10;1.33;;;12.40;99.90;;;;;;4953079;28;20474;-76
2021/10/04 06:00:50;;;;;;;2.10;1.60;;;12.50;99.90;;;;;;4953336;28;20607;-76
2021/10/04 06:03:16;;;;;;;1.90;1.53;;;12.40;99.90;;;;;;4949061;29;20169;-75
2021/10/04 06:05:42;;;;;;;1.63;1.53;;;12.40;99.90;;;;;;4942570;29;20221;-74
2021/10/04 06:08:08;;;;;;;1.57;1.33;;;12.40;99.90;;;;;;4941967;29;20189;-74
2021/10/04 06:10:33;;;;;;;1.40;1.30;;;12.50;99.90;;;;;;4934157;29;20479;-75
2021/10/04 06:12:59;;;;;;;2.50;1.20;;;12.50;99.90;;;;;;4934492;29;20178;-75
2021/10/04 06:15:25;;;;;;;2.63;1.40;;;12.50;99.90;;;;;;4933205;29;20185;-76
2021/10/04 06:17:51;;;;;;;2.23;1.67;;;12.40;99.90;;;;;;4934307;29;20471;-75
2021/10/04 06:20:16;;;;;;;2.60;2.33;;;12.40;99.90;;;;;;4934592;29;20552;-75
2021/10/04 06:22:43;;;;;;;7.20;2.83;;;12.40;99.90;;;;;;4933882;29;20196;-75
2021/10/04 06:25:11;;;;;;;9.93;3.40;;;12.40;99.90;;;;;;4934154;29;20233;-75
2021/10/04 06:27:37;;;;;;;2.83;2.37;;;12.40;99.90;;;;;;4933952;29;20423;-74
2021/10/04 06:30:05;;;;;;;4.43;3.40;;;12.50;99.90;;;;;;4936618;29;20511;-76
2021/10/04 06:32:30;;;;;;;4.03;3.40;;;12.50;99.90;;;;;;4951959;28;20472;-76
2021/10/04 06:34:56;;;;;;;5.40;3.07;;;12.50;99.90;;;;;;4953360;29;20427;-74
2021/10/04 06:37:21;;;;;;;3.40;1.70;;;12.50;99.90;;;;;;4952948;29;20881;-76
2021/10/04 06:39:47;;;;;;;2.10;2.00;;;12.50;99.90;;;;;;4953747;29;20192;-75
2021/10/04 06:42:12;;;;;;;3.23;1.70;;;12.50;99.90;;;;;;4952894;28;20620;-74
2021/10/04 06:44:38;;;;;;;2.20;1.20;;;12.60;99.90;;;;;;4952536;29;20205;-74
2021/10/04 06:47:04;;;;;;;1.93;1.83;;;12.60;99.90;;;;;;4952926;29;20542;-74
2021/10/04 06:49:29;;;;;;;4.30;2.63;;;12.60;99.90;;;;;;4953006;29;20751;-74
2021/10/04 06:51:55;;;;;;;7.10;2.17;;;12.60;99.90;;;;;;4953187;28;20596;-74
2021/10/04 06:54:20;;;;;;;4.30;2.77;;;12.60;99.90;;;;;;4952778;29;20184;-74
2021/10/04 06:56:46;;;;;;;4.03;2.40;;;12.70;99.90;;;;;;4953216;29;20252;-76
2021/10/04 06:59:11;;;;;;;2.43;2.27;;;12.60;99.90;;;;;;4954334;29;20296;-75
2021/10/04 07:01:37;;;;;;;3.73;3.20;;;12.60;99.90;;;;;;4953577;28;20197;-75
2021/10/04 07:04:04;;;;;;;3.80;3.50;;;12.70;99.90;;;;;;4956016;28;20231;-76
2021/10/04 07:06:30;;;;;;;3.90;3.30;;;12.70;99.90;;;;;;4954052;28;20186;-75
2021/10/04 07:08:55;;;;;;;4.53;4.07;;;12.70;99.90;;;;;;4952251;29;20424;-75
2021/10/04 07:11:21;;;;;;;5.83;4.47;;;12.70;99.90;;;;;;4954958;28;20201;-75
2021/10/04 07:13:48;;;;;;;4.73;4.00;;;12.70;99.90;;;;;;4955383;29;20267;-75
2021/10/04 07:16:17;;;;;;;7.50;5.00;;;12.70;99.90;;;;;;4957273;29;20192;-74
2021/10/04 07:18:42;;;;;;;5.40;4.70;;;12.70;99.90;;;;;;4955710;29;20452;-74
2021/10/04 07:21:11;;;;;;;5.47;4.73;;;12.70;99.90;;;;;;4957345;28;20440;-74
2021/10/04 07:23:37;;;;;;;6.00;5.43;;;12.80;99.90;;;;;;4957130;29;20264;-75
2021/10/04 07:26:04;;;;;;;7.40;6.00;;;12.80;99.90;;;;;;4957892;28;20416;-75
2021/10/04 07:28:29;;;;;;;6.60;5.90;;;12.80;99.90;;;;;;4957554;28;20424;-75
2021/10/04 07:30:56;;;;;;;8.50;5.40;;;12.80;99.90;;;;;;4957277;28;20527;-74
2021/10/04 07:33:22;;;;;;;5.47;5.00;;;12.90;99.90;;;;;;4957892;28;20610;-75
2021/10/04 07:35:48;;;;;;;5.20;4.70;;;12.90;99.90;;;;;;4957596;29;20491;-75
2021/10/04 07:38:14;;;;;;;6.27;5.47;;;12.90;99.90;;;;;;4956340;29;20460;-74
2021/10/04 07:40:40;;;;;;;5.20;4.60;;;12.90;99.90;;;;;;4956572;29;20431;-74
2021/10/04 07:43:05;;;;;;;4.83;4.07;;;12.90;99.90;;;;;;4955719;29;20229;-78
2021/10/04 07:45:32;;;;;;;4.17;3.60;;;12.80;99.90;;;;;;4955815;29;20647;-75
2021/10/04 07:47:58;;;;;;;4.27;3.97;;;12.80;99.90;;;;;;4955970;29;20538;-76
2021/10/04 07:50:24;;;;;;;5.83;5.33;;;12.80;99.90;;;;;;4956018;29;20425;-75
2021/10/04 07:52:50;;;;;;;3.93;3.63;;;12.80;99.90;;;;;;4956448;29;20295;-75
2021/10/04 07:55:16;;;;;;;5.73;4.60;;;12.80;99.90;;;;;;4956972;29;21004;-75
2021/10/04 07:57:44;;;;;;;4.93;4.17;;;12.80;99.90;;;;;;4956478;29;20499;-75
2021/10/04 08:00:10;;;;;;;3.33;2.87;;;12.90;99.90;;;;;;4956281;29;20646;-75
2021/10/04 08:02:36;;;;;;;6.10;4.53;;;12.90;99.90;;;;;;4955279;29;20565;-74
2021/10/04 08:05:03;;;;;;;5.07;4.40;;;13.00;99.90;;;;;;4955606;29;20467;-75
2021/10/04 08:07:29;;;;;;;5.13;4.13;;;12.90;99.90;;;;;;4955291;29;20961;-74
2021/10/04 08:09:54;;;;;;;5.50;4.60;;;13.00;99.90;;;;;;4955362;29;20427;-74
2021/10/04 08:12:23;;;;;;;4.30;3.80;;;13.00;99.90;;;;;;4955089;29;20197;-74
2021/10/04 08:14:49;;;;;;;7.90;4.53;;;12.90;99.90;;;;;;4955059;29;20175;-74
2021/10/04 08:17:14;;;;;;;5.47;4.90;;;13.00;99.90;;;;;;4953921;29;20431;-74
2021/10/04 08:19:40;;;;;;;7.47;5.83;;;13.10;99.90;;;;;;4954914;29;20614;-74
2021/10/04 08:22:05;;;;;;;5.30;4.90;;;13.10;99.90;;;;;;4955153;28;20626;-74
2021/10/04 08:24:31;;;;;;;37.27;8.97;;;13.10;99.90;;;;;;4953589;29;20185;-74
2021/10/04 08:26:56;;;;;;;8.53;5.83;;;13.10;99.90;;;;;;4955179;29;20263;-76
2021/10/04 08:29:22;;;;;;;5.10;4.63;;;13.10;99.90;;;;;;4955416;29;20247;-75
2021/10/04 08:31:47;;;;;;;10.50;4.67;;;13.10;99.90;;;;;;4955076;29;20216;-75
2021/10/04 08:34:13;;;;;;;25.47;6.90;;;13.10;99.90;;;;;;4953972;29;20184;-75
2021/10/04 08:36:38;;;;;;;6.00;4.77;;;13.10;99.90;;;;;;4955254;29;20187;-74
2021/10/04 08:39:07;;;;;;;4.03;3.73;;;13.10;99.90;;;;;;4955122;29;20271;-74
2021/10/04 08:41:34;;;;;;;4.00;3.70;;;13.00;99.90;;;;;;4954925;29;20626;-76
2021/10/04 08:44:06;;;;;;;6.37;4.57;;;12.90;99.90;;;;;;4953619;29;20510;-77
2021/10/04 08:46:37;;;;;;;4.40;4.03;;;12.90;99.90;;;;;;4954856;28;20640;-76
2021/10/04 08:49:02;;;;;;;18.03;6.37;;;12.90;99.90;;;;;;4954734;29;20507;-76
2021/10/04 08:51:28;;;;;;;9.03;5.00;;;12.90;99.90;;;;;;4954618;29;20523;-75
2021/10/04 08:53:53;;;;;;;7.37;4.53;;;13.00;99.90;;;;;;4953067;29;20595;-75
2021/10/04 08:56:20;;;;;;;6.53;3.57;;;12.90;99.90;;;;;;4954750;29;20196;-76
2021/10/04 08:58:45;;;;;;;3.60;3.30;;;13.00;99.90;;;;;;4954434;29;20341;-75
2021/10/04 09:01:11;;;;;;;4.30;4.00;;;13.00;99.90;;;;;;4954892;29;20961;-76
2021/10/04 09:03:49;;;;;;;4.67;4.27;;;13.00;99.90;;;;;;4954129;29;20184;-76
2021/10/04 09:06:28;;;;;;;4.37;3.43;;;13.00;99.90;;;;;;4954540;29;20263;-76
2021/10/04 09:08:56;;;;;;;6.20;4.77;;;13.10;99.90;;;;;;4952824;29;20451;-75
2021/10/04 09:11:37;;;;;;;4.87;4.47;;;13.20;99.90;;;;;;4954618;29;20811;-76
2021/10/04 09:14:06;;;;;;;7.00;3.40;;;13.20;99.90;;;;;;4952625;29;20431;-75
2021/10/04 09:16:50;;;;;;;4.00;3.70;;;13.20;99.90;;;;;;4954081;29;20423;-77
2021/10/04 09:19:48;;;;;;;3.83;3.57;;;13.20;99.90;;;;;;4953191;29;20472;-77
2021/10/04 09:22:20;;;;;;;3.43;3.13;;;13.30;99.90;;;;;;4922251;29;20482;-76
2021/10/04 09:24:57;;;;;;;3.63;3.33;;;13.30;99.90;;;;;;4954001;28;20504;-76
2021/10/04 09:27:31;;;;;;;2.60;2.40;;;13.40;99.90;;;;;;4954568;29;20416;-76
2021/10/04 09:29:58;;;;;;;5.50;3.37;;;13.40;99.90;;;;;;4955850;29;20479;-75
2021/10/04 09:32:35;;;;;;;3.20;2.90;;;13.50;99.90;;;;;;4956235;29;20452;-75
2021/10/04 09:35:11;;;;;;;3.30;3.00;;;13.50;99.90;;;;;;4952124;28;20424;-76
2021/10/04 09:37:37;;;;;;;3.20;2.90;;;13.50;99.90;;;;;;4952853;29;20463;-77
2021/10/04 09:40:03;;;;;;;3.30;3.07;;;13.60;99.90;;;;;;4950814;29;20420;-76
2021/10/04 09:42:37;;;;;;;2.70;2.50;;;13.60;99.90;;;;;;4949634;29;20543;-77
2021/10/04 09:45:04;;;;;;;3.07;2.87;;;13.60;99.90;;;;;;4952454;29;20454;-76
2021/10/04 09:47:38;;;;;;;3.50;3.20;;;13.70;99.90;;;;;;4953947;29;20425;-77
2021/10/04 09:50:04;;;;;;;6.23;2.10;;;13.70;99.90;;;;;;4952556;29;20416;-76
2021/10/04 09:52:32;;;;;;;1.97;1.53;;;13.70;99.90;;;;;;4954413;29;20818;-77
2021/10/04 09:54:58;;;;;;;2.87;2.50;;;13.70;99.90;;;;;;4954617;29;20187;-73
2021/10/04 09:57:23;;;;;;;2.27;1.93;;;13.70;99.90;;;;;;4954781;29;20925;-76
2021/10/04 09:59:49;;;;;;;2.40;2.30;;;13.70;99.90;;;;;;4954310;29;20204;-74
2021/10/04 10:02:17;;;;;;;6.20;2.10;;;13.70;99.90;;;;;;4955216;29;20193;-75
2021/10/04 10:04:45;;;;;;;2.13;1.97;;;13.80;99.90;;;;;;4954925;29;20516;-76
2021/10/04 10:07:11;;;;;;;2.23;1.70;;;13.80;99.90;;;;;;4955814;29;20412;-76
2021/10/04 10:09:41;;;;;;;1.53;1.43;;;13.90;99.90;;;;;;4955823;29;20956;-77
2021/10/04 10:12:08;;;;;;;1.47;1.37;;;14.00;99.90;;;;;;4957024;29;20197;-76
2021/10/04 10:14:42;;;;;;;1.00;1.00;;;14.00;99.90;;;;;;4956093;29;20405;-77
2021/10/04 10:17:20;;;;;;;1.40;1.30;;;14.10;99.90;;;;;;4955739;29;20417;-78
2021/10/04 10:19:48;;;;;;;1.87;1.37;;;14.20;99.90;;;;;;4954565;29;20416;-77
2021/10/04 10:22:16;;;;;;;2.00;0.80;;;14.30;99.90;;;;;;4954997;29;20929;-77
2021/10/04 10:24:44;;;;;;;3.33;1.50;;;14.30;99.90;;;;;;4952976;29;20396;-78
2021/10/04 10:27:10;;;;;;;0.93;0.93;;;14.40;99.90;;;;;;4953507;29;20509;-77
2021/10/04 10:29:36;;;;;;;1.37;0.83;;;14.30;99.90;;;;;;4953366;29;20921;-78
2021/10/04 10:32:05;;;;;;;0.93;0.83;;;14.40;99.90;;;;;;4952724;29;20836;-77
2021/10/04 10:34:30;;;;;;;0.80;0.80;;;14.50;99.90;;;;;;4951738;29;20505;-76
2021/10/04 10:37:15;;;;;;;0.70;0.70;;;14.50;99.90;;;;;;4953299;29;20870;-76
2021/10/04 10:39:41;;;;;;;1.33;0.50;;;14.50;99.90;;;;;;4951757;29;20219;-77
2021/10/04 10:42:12;;;;;;;2.00;0.70;;;14.50;99.90;;;;;;4952840;29;20506;-76
2021/10/04 10:45:10;;;;;;;0.60;0.60;;;14.50;99.90;;;;;;4953088;28;20180;-77
2021/10/04 10:47:36;;;;;;;0.97;0.60;;;14.60;99.90;;;;;;4956722;29;20400;-77
2021/10/04 10:50:08;;;;;;;1.67;0.60;;;14.50;99.90;;;;;;4955658;29;20416;-77
2021/10/04 10:52:37;;;;;;;1.00;0.60;;;14.60;99.90;;;;;;4956532;29;20200;-77
2021/10/04 10:55:22;;;;;;;0.73;0.60;;;14.50;99.90;;;;;;4956804;29;20906;-77
2021/10/04 10:57:57;;;;;;;0.80;0.50;;;14.50;99.90;;;;;;4955413;29;20468;-77
2021/10/04 11:00:43;;;;;;;4.73;0.97;;;14.50;99.90;;;;;;4955683;29;20422;-77
2021/10/04 11:03:16;;;;;;;0.57;0.57;;;14.50;99.90;;;;;;4954963;29;20906;-77
2021/10/04 11:05:41;;;;;;;0.70;0.70;;;14.50;99.90;;;;;;4956601;29;20420;-77
2021/10/04 11:08:17;;;;;;;0.63;0.53;;;14.50;99.90;;;;;;4956853;29;20426;-77
2021/10/04 11:10:49;;;;;;;0.53;0.53;;;14.40;99.90;;;;;;4956527;29;20271;-77
2021/10/04 11:13:14;;;;;;;0.60;0.60;;;14.40;99.90;;;;;;4956588;29;20788;-77
2021/10/04 11:15:41;;;;;;;3.47;0.60;;;14.40;99.90;;;;;;4956906;29;20416;-77
2021/10/04 11:18:09;;;;;;;0.60;0.50;;;14.40;99.90;;;;;;4956421;28;20211;-77
2021/10/04 11:20:36;;;;;;;1.43;0.53;;;14.50;99.90;;;;;;4956498;28;20444;-77
2021/10/04 11:23:07;;;;;;;1.10;0.70;;;14.50;99.90;;;;;;4955999;29;20491;-77
2021/10/04 11:25:46;;;;;;;0.80;0.40;;;14.50;99.90;;;;;;4956533;29;20928;-77
2021/10/04 11:28:14;;;;;;;0.50;0.50;;;14.60;99.90;;;;;;4958674;29;20415;-78
2021/10/04 11:31:00;;;;;;;0.57;0.50;;;14.70;99.90;;;;;;4958511;29;20828;-78
2021/10/04 11:33:28;;;;;;;1.00;0.50;;;14.70;99.90;;;;;;4955253;29;20435;-77
2021/10/04 11:35:54;;;;;;;1.33;0.70;;;14.70;99.90;;;;;;4956538;29;20412;-79
2021/10/04 11:38:20;;;;;;;3.27;1.83;;;14.70;99.90;;;;;;4956053;29;20459;-77
2021/10/04 11:40:46;;;;;;;1.67;0.90;;;14.80;99.90;;;;;;4955963;29;20750;-77
2021/10/04 11:43:12;;;;;;;2.37;1.13;;;14.80;99.90;;;;;;4955889;29;20223;-78
2021/10/04 11:45:37;;;;;;;1.00;0.90;;;14.70;99.90;;;;;;4956919;29;20789;-78
2021/10/04 11:48:03;;;;;;;1.77;1.33;;;14.70;99.90;;;;;;4956655;29;20183;-78
2021/10/04 11:50:32;;;;;;;3.27;1.50;;;14.70;99.90;;;;;;4956694;29;20185;-76
2021/10/04 11:53:01;;;;;;;2.13;1.00;;;14.70;99.90;;;;;;4956246;29;20181;-78
2021/10/04 11:55:26;;;;;;;1.23;1.00;;;14.70;99.90;;;;;;4956319;29;20504;-77
2021/10/04 11:57:52;;;;;;;1.13;1.10;;;14.60;99.90;;;;;;4954078;28;20551;-77
2021/10/04 12:00:17;;;;;;;2.13;1.57;;;14.60;99.90;;;;;;4954693;29;20199;-77
2021/10/04 12:02:50;;;;;;;1.03;1.03;;;14.40;99.90;;;;;;4955319;29;20189;-77
2021/10/04 12:05:24;;;;;;;1.03;0.93;;;14.30;99.90;;;;;;4954479;29;20661;-78
2021/10/04 12:07:59;;;;;;;1.27;1.17;;;14.40;99.90;;;;;;4956072;29;20428;-77
2021/10/04 12:10:42;;;;;;;0.97;0.90;;;14.40;99.90;;;;;;4957499;29;20506;-77
2021/10/04 12:13:19;;;;;;;1.03;1.03;;;14.40;99.90;;;;;;4957403;29;20408;-77
2021/10/04 12:15:47;;;;;;;1.37;1.27;;;14.50;99.90;;;;;;4958257;29;20422;-77
2021/10/04 12:18:33;;;;;;;3.27;1.40;;;14.60;99.90;;;;;;4956221;29;20941;-77
2021/10/04 12:21:21;;;;;;;1.27;1.17;;;14.60;99.90;;;;;;4956934;29;20479;-77
2021/10/04 12:24:09;;;;;;;0.97;0.87;;;14.70;99.90;;;;;;4956921;29;20467;-77
2021/10/04 12:26:51;;;;;;;1.47;1.00;;;14.80;99.90;;;;;;4956667;29;20427;-78
2021/10/04 12:29:30;;;;;;;1.10;1.00;;;14.90;99.90;;;;;;4956596;29;20424;-78
2021/10/04 12:31:55;;;;;;;4.70;1.53;;;14.90;99.90;;;;;;4956020;29;20466;-78
2021/10/04 12:34:24;;;;;;;0.67;0.67;;;15.00;99.90;;;;;;4956434;29;20424;-78
2021/10/04 12:36:53;;;;;;;0.83;0.83;;;15.10;99.90;;;;;;4957183;29;20219;-79
2021/10/04 12:39:19;;;;;;;0.90;0.80;;;15.20;99.90;;;;;;4956813;29;20977;-78
2021/10/04 12:41:47;;;;;;;0.80;0.80;;;15.20;99.90;;;;;;4956595;29;20491;-78
2021/10/04 12:44:15;;;;;;;0.90;0.70;;;15.20;99.90;;;;;;4956856;29;20168;-78
2021/10/04 12:47:03;;;;;;;0.70;0.70;;;15.10;99.90;;;;;;4956847;29;20787;-78
2021/10/04 12:49:30;;;;;;;1.20;1.03;;;15.00;99.90;;;;;;4955171;29;20412;-78
2021/10/04 12:52:00;;;;;;;2.90;1.23;;;15.00;99.90;;;;;;4955116;29;20516;-77
2021/10/04 12:54:31;;;;;;;1.13;0.90;;;15.20;99.90;;;;;;4955376;29;20418;-76
2021/10/04 12:56:57;;;;;;;0.70;0.70;;;15.30;99.90;;;;;;4952268;29;20455;-76
2021/10/04 12:59:31;;;;;;;0.80;0.80;;;15.50;99.90;;;;;;4954300;29;20470;-78
2021/10/04 13:01:59;;;;;;;1.20;1.07;;;15.60;99.90;;;;;;4953160;29;20451;-76
2021/10/04 13:04:32;;;;;;;0.77;0.63;;;15.70;99.90;;;;;;4953996;29;20420;-77
2021/10/04 13:06:58;;;;;;;1.97;0.77;;;15.80;99.90;;;;;;4955335;29;20412;-76
2021/10/04 13:09:24;;;;;;;1.10;0.77;;;15.70;99.90;;;;;;4958038;28;20412;-77
2021/10/04 13:11:52;;;;;;;0.60;0.60;;;15.60;99.90;;;;;;4954305;28;20496;-76
2021/10/04 13:14:19;;;;;;;1.80;0.80;;;15.50;99.90;;;;;;4954183;28;20177;-77
2021/10/04 13:16:45;;;;;;;1.60;0.90;;;15.60;99.90;;;;;;4954558;29;20435;-76
2021/10/04 13:19:10;;;;;;;0.70;0.70;;;15.50;99.90;;;;;;4954051;29;20458;-77
2021/10/04 13:21:36;;;;;;;2.13;0.70;;;15.40;99.90;;;;;;4953964;28;20444;-76
2021/10/04 13:24:02;;;;;;;1.23;0.80;;;15.50;99.90;;;;;;4954563;29;20184;-77
2021/10/04 13:26:28;;;;;;;1.33;1.23;;;15.50;99.90;;;;;;4958492;29;20173;-77
2021/10/04 13:28:54;;;;;;;1.43;1.00;;;15.50;99.90;;;;;;4954240;29;20422;-78
2021/10/04 13:31:21;;;;;;;0.83;0.80;;;15.40;99.90;;;;;;4953484;29;20525;-77
2021/10/04 13:33:49;;;;;;;0.87;0.73;;;15.30;99.90;;;;;;4953976;29;20627;-76
2021/10/04 13:36:15;;;;;;;1.37;0.90;;;15.40;99.90;;;;;;4954035;29;20425;-76
2021/10/04 13:38:42;;;;;;;1.20;1.00;;;15.40;99.90;;;;;;4953842;29;20464;-77
2021/10/04 13:41:08;;;;;;;0.90;0.80;;;15.40;99.90;;;;;;4954058;29;20783;-77
2021/10/04 13:43:34;;;;;;;1.20;1.10;;;15.50;99.90;;;;;;4953772;29;20427;-76
2021/10/04 13:46:00;;;;;;;0.73;0.73;;;15.60;99.90;;;;;;4954246;29;20411;-75
2021/10/04 13:48:26;;;;;;;0.97;0.70;;;15.60;99.90;;;;;;4953663;29;20440;-76
2021/10/04 13:50:53;;;;;;;1.07;1.07;;;15.60;99.90;;;;;;4953632;29;20205;-76
2021/10/04 13:53:19;;;;;;;3.07;0.90;;;15.60;99.90;;;;;;4954133;29;20770;-77
2021/10/04 13:55:45;;;;;;;1.53;0.90;;;15.60;99.90;;;;;;4954348;29;20439;-76
2021/10/04 13:58:11;;;;;;;0.93;0.70;;;15.50;99.90;;;;;;4954100;29;20460;-76
2021/10/04 14:00:36;;;;;;;1.47;0.80;;;15.50;99.90;;;;;;4953974;29;20188;-75
2021/10/04 14:03:02;;;;;;;2.30;0.87;;;15.60;99.90;;;;;;4953631;29;20172;-76
2021/10/04 14:05:28;;;;;;;1.87;1.40;;;15.60;99.90;;;;;;4952232;29;20187;-75
2021/10/04 14:07:55;;;;;;;5.40;1.20;;;15.50;99.90;;;;;;4953972;29;20420;-76
2021/10/04 14:10:22;;;;;;;2.00;1.10;;;15.50;99.90;;;;;;4953465;29;20172;-77
2021/10/04 14:12:47;;;;;;;4.50;1.10;;;15.70;99.90;;;;;;4953414;29;20444;-77
2021/10/04 14:15:13;;;;;;;1.37;1.10;;;15.70;99.90;;;;;;4952687;29;20511;-76
2021/10/04 14:17:39;;;;;;;2.67;0.80;;;15.70;99.90;;;;;;4952475;29;20315;-78
2021/10/04 14:20:07;;;;;;;2.80;0.90;;;15.70;99.90;;;;;;4954021;28;20479;-76
2021/10/04 14:22:33;;;;;;;1.57;0.80;;;15.70;99.90;;;;;;4959424;28;20188;-78
2021/10/04 14:24:58;;;;;;;1.07;0.80;;;15.70;99.90;;;;;;4958928;29;20428;-75
2021/10/04 14:27:24;;;;;;;1.17;0.80;;;15.70;99.90;;;;;;4959697;28;20187;-77
2021/10/04 14:29:49;;;;;;;1.20;0.73;;;15.70;99.90;;;;;;4959923;29;20180;-78
2021/10/04 14:32:15;;;;;;;0.67;0.67;;;15.70;99.90;;;;;;4959741;28;20292;-76
2021/10/04 14:34:41;;;;;;;4.00;1.00;;;15.70;99.90;;;;;;4958696;29;20210;-77
2021/10/04 14:37:07;;;;;;;1.90;0.90;;;15.60;99.90;;;;;;4960202;29;20259;-77
2021/10/04 14:39:32;;;;;;;4.13;0.90;;;15.60;99.90;;;;;;4959997;29;20339;-78
2021/10/04 14:41:58;;;;;;;1.47;1.07;;;15.50;99.90;;;;;;4959952;29;20210;-76
2021/10/04 14:44:24;;;;;;;0.90;0.90;;;15.50;99.90;;;;;;4959438;28;20191;-76
2021/10/04 14:46:49;;;;;;;1.40;1.30;;;15.40;99.90;;;;;;4960219;28;20186;-75
2021/10/04 14:49:15;;;;;;;1.33;1.00;;;15.30;99.90;;;;;;4959736;28;20186;-79
2021/10/04 14:51:41;;;;;;;1.10;1.00;;;15.20;99.90;;;;;;4959730;28;20278;-77
2021/10/04 14:54:07;;;;;;;2.30;1.43;;;15.10;99.90;;;;;;4958218;28;20441;-75
2021/10/04 14:56:33;;;;;;;2.53;1.33;;;15.10;99.90;;;;;;4959232;28;20187;-77
2021/10/04 14:59:00;;;;;;;2.27;1.10;;;15.10;99.90;;;;;;4959087;29;20477;-77
2021/10/04 15:01:26;;;;;;;1.00;1.00;;;15.10;99.90;;;;;;4959121;29;20583;-75
2021/10/04 15:03:54;;;;;;;2.10;0.97;;;15.00;99.90;;;;;;4959366;29;20427;-74
2021/10/04 15:06:19;;;;;;;2.50;0.90;;;15.00;99.90;;;;;;4959442;29;20503;-76
2021/10/04 15:08:45;;;;;;;1.53;0.80;;;15.00;99.90;;;;;;4959662;29;20513;-78
2021/10/04 15:11:10;;;;;;;0.87;0.83;;;14.90;99.90;;;;;;4959421;29;20203;-76
2021/10/04 15:13:36;;;;;;;1.13;1.00;;;15.00;99.90;;;;;;4959482;29;20578;-76
2021/10/04 15:16:02;;;;;;;2.03;0.90;;;14.90;99.90;;;;;;4958021;29;20745;-74
2021/10/04 15:18:27;;;;;;;1.40;1.30;;;14.90;99.90;;;;;;4959238;29;20693;-76
2021/10/04 15:20:53;;;;;;;1.60;1.23;;;14.80;99.90;;;;;;4959546;29;20467;-75
2021/10/04 15:23:19;;;;;;;0.90;0.80;;;14.80;99.90;;;;;;4959727;28;20218;-76
2021/10/04 15:25:45;;;;;;;1.10;0.93;;;14.80;99.90;;;;;;4962735;28;20190;-77
2021/10/04 15:28:10;;;;;;;1.30;1.20;;;14.80;99.90;;;;;;4970303;29;20416;-79
2021/10/04 15:30:37;;;;;;;1.60;1.23;;;14.80;99.90;;;;;;4959631;28;20194;-78
2021/10/04 15:33:03;;;;;;;4.30;1.30;;;14.80;99.90;;;;;;4956239;28;20197;-77
2021/10/04 15:35:28;;;;;;;1.30;1.10;;;14.80;99.90;;;;;;4955983;29;21058;-76
2021/10/04 15:37:54;;;;;;;1.00;1.00;;;14.80;99.90;;;;;;4956203;29;20617;-76
2021/10/04 15:40:20;;;;;;;5.47;1.30;;;14.70;99.90;;;;;;4955959;29;20181;-76
2021/10/04 15:42:46;;;;;;;1.23;1.00;;;14.70;99.90;;;;;;4956531;29;20495;-77
2021/10/04 15:45:11;;;;;;;0.70;0.70;;;14.70;99.90;;;;;;4955152;29;20184;-76
2021/10/04 15:47:37;;;;;;;2.20;0.80;;;14.70;99.90;;;;;;4956382;29;20176;-77
2021/10/04 15:50:04;;;;;;;1.50;0.80;;;14.60;99.90;;;;;;4956038;29;20207;-77
2021/10/04 15:52:30;;;;;;;1.53;1.00;;;14.60;99.90;;;;;;4955291;29;20467;-76
2021/10/04 15:54:55;;;;;;;2.20;1.00;;;14.60;99.90;;;;;;4955597;29;20417;-74
2021/10/04 15:57:21;;;;;;;3.33;1.47;;;14.50;99.90;;;;;;4955466;29;20176;-76
2021/10/04 15:59:47;;;;;;;1.53;1.33;;;14.40;99.90;;;;;;4955136;29;20474;-76
2021/10/04 16:02:14;;;;;;;1.67;1.00;;;14.40;99.90;;;;;;4955377;29;20204;-76
2021/10/04 16:04:41;;;;;;;4.87;1.20;;;14.40;99.90;;;;;;4956017;29;20184;-77
2021/10/04 16:07:08;;;;;;;1.10;1.10;;;14.40;99.90;;;;;;4956223;29;20423;-78
2021/10/04 16:09:33;;;;;;;1.77;1.40;;;14.30;99.90;;;;;;4955986;29;20420;-77
2021/10/04 16:11:59;;;;;;;1.70;1.60;;;14.30;99.90;;;;;;4955910;29;20976;-76
2021/10/04 16:14:25;;;;;;;1.43;1.33;;;14.30;99.90;;;;;;4955359;29;20267;-76
2021/10/04 16:16:51;;;;;;;2.47;1.13;;;14.20;99.90;;;;;;4955840;29;21001;-76
2021/10/04 16:19:16;;;;;;;1.00;1.00;;;14.20;99.90;;;;;;4952686;29;20219;-75
2021/10/04 16:21:42;;;;;;;1.50;1.40;;;14.20;99.90;;;;;;4955498;28;20205;-76
2021/10/04 16:24:12;;;;;;;1.03;0.93;;;14.20;99.90;;;;;;4955610;29;20197;-76
2021/10/04 16:26:41;;;;;;;1.57;1.43;;;14.10;99.90;;;;;;4955577;29;20177;-76
2021/10/04 16:29:08;;;;;;;1.33;1.30;;;14.20;99.90;;;;;;4955017;29;20428;-76
2021/10/04 16:31:34;;;;;;;1.10;1.00;;;14.10;99.90;;;;;;4955121;29;20551;-76
2021/10/04 16:33:59;;;;;;;1.30;1.20;;;14.10;99.90;;;;;;4955379;29;20849;-76
2021/10/04 16:36:27;;;;;;;5.80;1.40;;;14.00;99.90;;;;;;4954839;29;20259;-77
2021/10/04 16:38:52;;;;;;;1.67;1.57;;;14.00;99.90;;;;;;4955057;29;20295;-76
2021/10/04 16:41:18;;;;;;;2.10;2.00;;;13.90;99.90;;;;;;4954913;29;20961;-77
2021/10/04 16:43:44;;;;;;;3.57;2.10;;;13.90;99.90;;;;;;4953814;28;20287;-76
2021/10/04 16:46:09;;;;;;;1.80;1.70;;;13.90;99.90;;;;;;4954821;29;20654;-76
2021/10/04 16:48:35;;;;;;;2.33;2.23;;;13.90;99.90;;;;;;4954633;29;20212;-76
2021/10/04 16:51:01;;;;;;;2.03;1.93;;;13.80;99.90;;;;;;4954670;29;20197;-76
2021/10/04 16:53:28;;;;;;;2.87;2.60;;;13.80;99.90;;;;;;4954422;29;20250;-76
2021/10/04 16:55:54;;;;;;;2.30;2.20;;;13.80;99.90;;;;;;4954876;29;20177;-77
2021/10/04 16:58:20;;;;;;;4.07;3.67;;;13.70;99.90;;;;;;4954719;29;20554;-76
2021/10/04 17:00:45;;;;;;;2.33;2.23;;;13.70;99.90;;;;;;4954879;29;20507;-76
2021/10/04 17:03:11;;;;;;;2.20;2.10;;;13.70;99.90;;;;;;4954775;29;20319;-77
2021/10/04 17:05:36;;;;;;;2.20;2.10;;;13.70;99.90;;;;;;4954501;29;20177;-76
2021/10/04 17:08:03;;;;;;;1.90;1.80;;;13.60;99.90;;;;;;4954644;29;20649;-76
2021/10/04 17:10:28;;;;;;;2.93;1.90;;;13.60;99.90;;;;;;4954227;29;20181;-76
2021/10/04 17:12:54;;;;;;;2.03;1.93;;;13.60;99.90;;;;;;4954254;29;20956;-76
2021/10/04 17:15:20;;;;;;;1.97;1.87;;;13.50;99.90;;;;;;4954139;29;20420;-77
2021/10/04 17:17:46;;;;;;;2.20;1.90;;;13.50;99.90;;;;;;4954129;29;20701;-76